Zyana K — WDI6527 — position and weather

sailwx.info

Track history (hours):
 
Tides and Currents Weather Stations Pressure Air Temp Water Temp Dewpoint Dewpoint Depression Visibility Wind Speed Wind Dir Waves Ship Positions

Zyana K

Owner: G & H Towing Company, Galveston, TX. More information available from US FCC via Universal Licensing System and Coast Guard Vessel Documentation Center.

Last reported at 2018-Jul-21 17:27 UTC. Time now 2018-Jul-22 00:31 UTC.
Position N 29°45' W 095°12'.

Length 24 m; draft 5.4 m.

Type: Tug. MMSI: 367719610.

Date/timePositionNaut miles runAvg speedWind from/ knotsBaromVisibWave heightAir tempDewpointWater temp
2018-Jul-21 17:27N 29°45' W 095°12'0 0.4
2018-Jul-21 16:58N 29°44' W 095°12'0 0.2
2018-Jul-21 15:34N 29°44' W 095°12'5 2.7
2018-Jul-21 13:50N 29°44' W 095°07'0 0.2
2018-Jul-21 12:26N 29°45' W 095°07'0 0.0
2018-Jul-21 11:54N 29°45' W 095°07'1 1.7
2018-Jul-21 11:28N 29°45' W 095°06'1 0.7
2018-Jul-21 10:01N 29°44' W 095°07'0 0.1
2018-Jul-21 09:55N 29°44' W 095°07'0 0.0
2018-Jul-21 08:16N 29°44' W 095°07'0 0.0
2018-Jul-21 07:55N 29°44' W 095°07'0 0.0
2018-Jul-21 07:13N 29°44' W 095°07'0 0.0
2018-Jul-21 06:52N 29°44' W 095°07'0 0.0
2018-Jul-21 06:25N 29°44' W 095°07'0 0.0
2018-Jul-21 05:55N 29°44' W 095°07'0 0.0
2018-Jul-20 19:11N 29°45' W 095°07'5 0.7
2018-Jul-20 12:33N 29°44' W 095°12'1 4.5
2018-Jul-20 12:19N 29°43' W 095°13'0 1.4
2018-Jul-20 12:00N 29°44' W 095°14'0 0.0
2018-Jul-20 11:29N 29°44' W 095°14'1 1.2
2018-Jul-20 11:00N 29°43' W 095°14'0 0.9
2018-Jul-20 10:30N 29°44' W 095°14'3 5.5
2018-Jul-20 10:00N 29°45' W 095°11'0 0.5
2018-Jul-20 09:30N 29°45' W 095°11'0 0.0
2018-Jul-20 09:01N 29°45' W 095°11'1 2.8
2018-Jul-20 08:30N 29°45' W 095°12'0 0.0
2018-Jul-20 08:00N 29°45' W 095°12'1 1.1
2018-Jul-20 07:29N 29°45' W 095°11'3 5.3
2018-Jul-20 07:00N 29°44' W 095°09'0 0.0
2018-Jul-20 06:28N 29°44' W 095°09'0 0.0
2018-Jul-20 05:25N 29°44' W 095°09'0 0.0
2018-Jul-20 04:55N 29°44' W 095°09'0 0.0
2018-Jul-20 04:25N 29°44' W 095°09'1 2.8
2018-Jul-20 04:00N 29°44' W 095°07'3 6.2
2018-Jul-20 03:30N 29°45' W 095°04'1 0.9
2018-Jul-20 02:41N 29°44' W 095°03'2 7.4
2018-Jul-20 02:24N 29°43' W 095°01'0 0.4
2018-Jul-20 01:17N 29°42' W 095°01'9 0.7
2018-Jul-19 12:55N 29°45' W 095°10'0 0.5
2018-Jul-19 12:28N 29°45' W 095°10'2 1.2
2018-Jul-19 10:58N 29°44' W 095°12'0 0.0
2018-Jul-19 10:30N 29°44' W 095°12'0 0.0
2018-Jul-19 10:00N 29°44' W 095°12'0 0.0
2018-Jul-19 09:28N 29°44' W 095°12'0 0.0
2018-Jul-19 09:00N 29°44' W 095°12'0 0.0
2018-Jul-19 08:30N 29°44' W 095°12'0 0.0
2018-Jul-19 08:00N 29°44' W 095°12'0 0.0
2018-Jul-19 07:30N 29°44' W 095°12'0 0.0
2018-Jul-19 07:00N 29°44' W 095°12'0 0.4
2018-Jul-19 06:31N 29°44' W 095°12'0 0.2
2018-Jul-19 06:00N 29°44' W 095°12'0 0.5
2018-Jul-19 05:26N 29°44' W 095°12'0 0.0
2018-Jul-19 04:23N 29°44' W 095°12'4 0.4
2018-Jul-18 16:08N 29°44' W 095°07'5 1.6
2018-Jul-18 12:57N 29°43' W 095°13'1 0.8
2018-Jul-18 11:38N 29°44' W 095°12'0 0.0
2018-Jul-18 11:20N 29°44' W 095°12'1 1.2
2018-Jul-18 10:28N 29°45' W 095°11'0 0.0
2018-Jul-18 10:00N 29°45' W 095°11'1 2.0
2018-Jul-18 09:29N 29°44' W 095°12'0 0.0
2018-Jul-18 07:56N 29°44' W 095°12'1 3.3
2018-Jul-18 07:29N 29°44' W 095°14'2 1.7
2018-Jul-18 06:22N 29°45' W 095°12'2 6.2
2018-Jul-18 05:59N 29°44' W 095°09'7 1.2
2018-Jul-18 00:01N 29°42' W 095°01'0 9.0
2018-Jul-17 23:59N 29°42' W 095°01'1 3.0
2018-Jul-17 23:30N 29°41' W 094°60'0 0.1
2018-Jul-17 22:59N 29°41' W 094°60'0 0.0
2018-Jul-17 22:29N 29°41' W 094°60'4 6.3
2018-Jul-17 21:51N 29°44' W 095°03'4 6.4
2018-Jul-17 21:17N 29°44' W 095°07'1 1.6
2018-Jul-17 20:50N 29°44' W 095°08'0 0.0
2018-Jul-17 20:28N 29°44' W 095°08'1 0.4
2018-Jul-17 16:56N 29°45' W 095°06'1 0.3
2018-Jul-17 15:04N 29°44' W 095°07'0 1.4
2018-Jul-17 15:00N 29°44' W 095°07'1 0.7
2018-Jul-17 13:51N 29°44' W 095°08'1 1.7
2018-Jul-17 13:22N 29°44' W 095°09'0 0.0
2018-Jul-17 13:00N 29°44' W 095°09'1 2.2
2018-Jul-17 12:30N 29°44' W 095°07'1 1.0
2018-Jul-17 11:52N 29°44' W 095°07'0 0.0
2018-Jul-17 11:28N 29°44' W 095°07'0 0.0
2018-Jul-17 10:58N 29°44' W 095°07'2 3.6
2018-Jul-17 10:30N 29°46' W 095°05'4 8.1
2018-Jul-17 10:00N 29°43' W 095°01'4 7.8
2018-Jul-17 09:29N 29°40' W 094°59'3 7.2
2018-Jul-17 09:00N 29°37' W 094°59'2 4.0
2018-Jul-17 08:30N 29°37' W 095°01'1 1.9
2018-Jul-17 08:00N 29°37' W 095°00'0 0.1
2018-Jul-17 07:29N 29°37' W 095°00'0 0.0
2018-Jul-17 06:56N 29°37' W 095°00'0 0.0
2018-Jul-17 06:29N 29°37' W 095°00'0 0.0
2018-Jul-17 05:59N 29°37' W 095°00'0 0.0
2018-Jul-17 05:31N 29°37' W 095°00'1 1.9
2018-Jul-17 05:00N 29°37' W 095°01'0 0.1
2018-Jul-17 04:30N 29°37' W 095°01'0 0.2
2018-Jul-17 04:00N 29°37' W 095°01'1 1.6
2018-Jul-17 03:31N 29°37' W 095°00'0 0.2
2018-Jul-17 01:50N 29°37' W 094°60'2 7.3
2018-Jul-17 01:31N 29°37' W 094°57'510.1
2018-Jul-17 01:00N 29°32' W 094°54'510.1
2018-Jul-17 00:30N 29°28' W 094°51'9 4.7
2018-Jul-16 22:30N 29°19' W 094°47'1 1.3
2018-Jul-16 22:00N 29°19' W 094°48'0 0.2
2018-Jul-16 21:29N 29°19' W 094°48'1 2.7
2018-Jul-16 21:00N 29°20' W 094°47'4 8.6
2018-Jul-16 20:30N 29°22' W 094°51'4 7.0
2018-Jul-16 20:00N 29°22' W 094°55'0 0.3
2018-Jul-16 19:25N 29°22' W 094°55'1 0.3
2018-Jul-16 14:21N 29°23' W 094°54'0 0.0
2018-Jul-16 08:06N 29°23' W 094°54'0 0.0
2018-Jul-16 07:51N 29°23' W 094°54'0 0.0
2018-Jul-16 07:24N 29°23' W 094°54'1 1.0
2018-Jul-16 06:49N 29°22' W 094°53'2 7.0
2018-Jul-16 06:29N 29°22' W 094°51'5 7.7
2018-Jul-16 05:53N 29°19' W 094°47'0 0.0
2018-Jul-16 01:55N 29°19' W 094°47'0 0.0
2018-Jul-16 01:28N 29°19' W 094°47'0 0.0
2018-Jul-15 16:22N 29°19' W 094°47'2 5.3
2018-Jul-15 16:00N 29°21' W 094°48'4 7.5
2018-Jul-15 15:30N 29°23' W 094°52'2 1.5
2018-Jul-15 14:30N 29°22' W 094°53'0 0.5
2018-Jul-15 14:00N 29°23' W 094°53'0 0.3
2018-Jul-15 13:19N 29°23' W 094°53'0 0.3
2018-Jul-15 13:00N 29°23' W 094°54'0 0.0
2018-Jul-15 12:18N 29°23' W 094°54'0 0.0
2018-Jul-15 11:59N 29°23' W 094°54'0 0.0
2018-Jul-15 11:19N 29°23' W 094°54'0 0.0
2018-Jul-15 10:57N 29°23' W 094°54'0 0.0
2018-Jul-15 10:18N 29°23' W 094°54'0 0.0
2018-Jul-15 09:58N 29°23' W 094°54'0 0.0
2018-Jul-15 08:27N 29°23' W 094°54'1 0.8
2018-Jul-15 07:35N 29°22' W 094°53'0 1.3
2018-Jul-15 07:31N 29°22' W 094°53'0 0.1
2018-Jul-15 01:57N 29°22' W 094°54'1 2.8
2018-Jul-15 01:30N 29°22' W 094°55'1 1.7
2018-Jul-15 00:56N 29°22' W 094°54'1 2.8
2018-Jul-15 00:25N 29°23' W 094°53'1 0.2
2018-Jul-14 20:15N 29°23' W 094°53'0 0.3
2018-Jul-14 19:49N 29°23' W 094°53'4 3.7
2018-Jul-14 18:51N 29°22' W 094°49'2 5.9
2018-Jul-14 18:30N 29°21' W 094°47'1 1.9
2018-Jul-14 18:00N 29°20' W 094°46'2 2.0
2018-Jul-14 17:14N 29°19' W 094°47'0 0.1
2018-Jul-14 16:38N 29°19' W 094°47'0 0.0
2018-Jul-14 16:17N 29°19' W 094°47'0 0.0
2018-Jul-14 15:23N 29°19' W 094°47'0 0.0
2018-Jul-14 14:50N 29°19' W 094°47'0 0.0
2018-Jul-14 14:17N 29°19' W 094°47'0 0.0
2018-Jul-14 13:11N 29°19' W 094°47'1 3.6
2018-Jul-14 12:59N 29°19' W 094°48'1 2.1
2018-Jul-14 12:30N 29°19' W 094°47'0 0.3
2018-Jul-14 11:16N 29°19' W 094°47'0 0.0
2018-Jul-14 10:40N 29°19' W 094°47'0 0.0
2018-Jul-14 10:19N 29°19' W 094°47'0 0.0
2018-Jul-14 09:52N 29°19' W 094°47'0 0.0
2018-Jul-14 08:40N 29°19' W 094°47'0 0.0
2018-Jul-14 08:07N 29°19' W 094°47'0 0.0
2018-Jul-14 07:52N 29°19' W 094°47'0 0.0
2018-Jul-14 06:58N 29°19' W 094°47'0 0.0
2018-Jul-14 06:25N 29°19' W 094°47'0 0.0
2018-Jul-14 05:55N 29°19' W 094°47'0 0.0
2018-Jul-14 05:22N 29°19' W 094°47'0 0.0
2018-Jul-14 04:55N 29°19' W 094°47'0 0.0
2018-Jul-14 04:25N 29°19' W 094°47'0 0.0
2018-Jul-14 03:52N 29°19' W 094°47'0 0.0
2018-Jul-14 03:10N 29°19' W 094°47'0 0.0
2018-Jul-14 02:40N 29°19' W 094°47'0 0.0
2018-Jul-14 02:28N 29°19' W 094°47'0 0.0
2018-Jul-14 00:55N 29°19' W 094°47'0 0.0
2018-Jul-14 00:25N 29°19' W 094°47'0 0.0
2018-Jul-13 23:58N 29°19' W 094°47'0 0.0
2018-Jul-13 23:28N 29°19' W 094°47'0 0.0
2018-Jul-13 22:58N 29°19' W 094°47'1 2.8
2018-Jul-13 22:29N 29°19' W 094°48'0 0.1
2018-Jul-13 21:59N 29°19' W 094°49'2 3.8
2018-Jul-13 21:29N 29°20' W 094°47'1 2.8
2018-Jul-13 21:00N 29°19' W 094°48'0 0.3
2018-Jul-13 20:30N 29°19' W 094°48'1 1.8
2018-Jul-13 19:52N 29°19' W 094°47'3 7.9
2018-Jul-13 19:30N 29°22' W 094°49'4 5.1
2018-Jul-13 18:42N 29°22' W 094°53'0 2.2
2018-Jul-13 18:29N 29°23' W 094°54'1 0.5
2018-Jul-13 17:12N 29°22' W 094°53'1 4.0
2018-Jul-13 16:50N 29°23' W 094°52'1 0.9
2018-Jul-13 15:16N 29°23' W 094°53'0 0.2
2018-Jul-13 13:56N 29°23' W 094°53'2 5.3
2018-Jul-13 13:30N 29°22' W 094°51'4 6.7
2018-Jul-13 12:51N 29°19' W 094°47'0 0.0
2018-Jul-12 23:13N 29°19' W 094°47'2 7.3
2018-Jul-12 23:00N 29°21' W 094°47'611.0
2018-Jul-12 22:30N 29°23' W 094°53'1 0.6
2018-Jul-12 21:41N 29°23' W 094°53'0 0.1
2018-Jul-12 19:18N 29°23' W 094°53'0 0.0
2018-Jul-12 05:29N 29°23' W 094°53'1 1.0
2018-Jul-12 04:51N 29°22' W 094°53'  
Track history (hours):
 
Tides and Currents Weather Stations Pressure Air Temp Water Temp Dewpoint Dewpoint Depression Visibility Wind Speed Wind Dir Waves Ship Positions

Zyana K

Owner: G & H Towing Company, Galveston, TX. More information available from US FCC via Universal Licensing System and Coast Guard Vessel Documentation Center.

Last reported at 2018-Jul-21 17:27 UTC. Time now 2018-Jul-22 00:31 UTC.
Position N 29°45' W 095°12'.

Length 24 m; draft 5.4 m.

Type: Tug. MMSI: 367719610.

Date/timePositionNaut miles runAvg speedWind from/ knotsBaromVisibWave heightAir tempDewpointWater temp
2018-Jul-21 17:27N 29°45' W 095°12'0 0.4
2018-Jul-21 16:58N 29°44' W 095°12'0 0.2
2018-Jul-21 15:34N 29°44' W 095°12'5 2.7
2018-Jul-21 13:50N 29°44' W 095°07'0 0.2
2018-Jul-21 12:26N 29°45' W 095°07'0 0.0
2018-Jul-21 11:54N 29°45' W 095°07'1 1.7
2018-Jul-21 11:28N 29°45' W 095°06'1 0.7
2018-Jul-21 10:01N 29°44' W 095°07'0 0.1
2018-Jul-21 09:55N 29°44' W 095°07'0 0.0
2018-Jul-21 08:16N 29°44' W 095°07'0 0.0
2018-Jul-21 07:55N 29°44' W 095°07'0 0.0
2018-Jul-21 07:13N 29°44' W 095°07'0 0.0
2018-Jul-21 06:52N 29°44' W 095°07'0 0.0
2018-Jul-21 06:25N 29°44' W 095°07'0 0.0
2018-Jul-21 05:55N 29°44' W 095°07'0 0.0
2018-Jul-20 19:11N 29°45' W 095°07'5 0.7
2018-Jul-20 12:33N 29°44' W 095°12'1 4.5
2018-Jul-20 12:19N 29°43' W 095°13'0 1.4
2018-Jul-20 12:00N 29°44' W 095°14'0 0.0
2018-Jul-20 11:29N 29°44' W 095°14'1 1.2
2018-Jul-20 11:00N 29°43' W 095°14'0 0.9
2018-Jul-20 10:30N 29°44' W 095°14'3 5.5
2018-Jul-20 10:00N 29°45' W 095°11'0 0.5
2018-Jul-20 09:30N 29°45' W 095°11'0 0.0
2018-Jul-20 09:01N 29°45' W 095°11'1 2.8
2018-Jul-20 08:30N 29°45' W 095°12'0 0.0
2018-Jul-20 08:00N 29°45' W 095°12'1 1.1
2018-Jul-20 07:29N 29°45' W 095°11'3 5.3
2018-Jul-20 07:00N 29°44' W 095°09'0 0.0
2018-Jul-20 06:28N 29°44' W 095°09'0 0.0
2018-Jul-20 05:25N 29°44' W 095°09'0 0.0
2018-Jul-20 04:55N 29°44' W 095°09'0 0.0
2018-Jul-20 04:25N 29°44' W 095°09'1 2.8
2018-Jul-20 04:00N 29°44' W 095°07'3 6.2
2018-Jul-20 03:30N 29°45' W 095°04'1 0.9
2018-Jul-20 02:41N 29°44' W 095°03'2 7.4
2018-Jul-20 02:24N 29°43' W 095°01'0 0.4
2018-Jul-20 01:17N 29°42' W 095°01'9 0.7
2018-Jul-19 12:55N 29°45' W 095°10'0 0.5
2018-Jul-19 12:28N 29°45' W 095°10'2 1.2
2018-Jul-19 10:58N 29°44' W 095°12'0 0.0
2018-Jul-19 10:30N 29°44' W 095°12'0 0.0
2018-Jul-19 10:00N 29°44' W 095°12'0 0.0
2018-Jul-19 09:28N 29°44' W 095°12'0 0.0
2018-Jul-19 09:00N 29°44' W 095°12'0 0.0
2018-Jul-19 08:30N 29°44' W 095°12'0 0.0
2018-Jul-19 08:00N 29°44' W 095°12'0 0.0
2018-Jul-19 07:30N 29°44' W 095°12'0 0.0
2018-Jul-19 07:00N 29°44' W 095°12'0 0.4
2018-Jul-19 06:31N 29°44' W 095°12'0 0.2
2018-Jul-19 06:00N 29°44' W 095°12'0 0.5
2018-Jul-19 05:26N 29°44' W 095°12'0 0.0
2018-Jul-19 04:23N 29°44' W 095°12'4 0.4
2018-Jul-18 16:08N 29°44' W 095°07'5 1.6
2018-Jul-18 12:57N 29°43' W 095°13'1 0.8
2018-Jul-18 11:38N 29°44' W 095°12'0 0.0
2018-Jul-18 11:20N 29°44' W 095°12'1 1.2
2018-Jul-18 10:28N 29°45' W 095°11'0 0.0
2018-Jul-18 10:00N 29°45' W 095°11'1 2.0
2018-Jul-18 09:29N 29°44' W 095°12'0 0.0
2018-Jul-18 07:56N 29°44' W 095°12'1 3.3
2018-Jul-18 07:29N 29°44' W 095°14'2 1.7
2018-Jul-18 06:22N 29°45' W 095°12'2 6.2
2018-Jul-18 05:59N 29°44' W 095°09'7 1.2
2018-Jul-18 00:01N 29°42' W 095°01'0 9.0
2018-Jul-17 23:59N 29°42' W 095°01'1 3.0
2018-Jul-17 23:30N 29°41' W 094°60'0 0.1
2018-Jul-17 22:59N 29°41' W 094°60'0 0.0
2018-Jul-17 22:29N 29°41' W 094°60'4 6.3
2018-Jul-17 21:51N 29°44' W 095°03'4 6.4
2018-Jul-17 21:17N 29°44' W 095°07'1 1.6
2018-Jul-17 20:50N 29°44' W 095°08'0 0.0
2018-Jul-17 20:28N 29°44' W 095°08'1 0.4
2018-Jul-17 16:56N 29°45' W 095°06'1 0.3
2018-Jul-17 15:04N 29°44' W 095°07'0 1.4
2018-Jul-17 15:00N 29°44' W 095°07'1 0.7
2018-Jul-17 13:51N 29°44' W 095°08'1 1.7
2018-Jul-17 13:22N 29°44' W 095°09'0 0.0
2018-Jul-17 13:00N 29°44' W 095°09'1 2.2
2018-Jul-17 12:30N 29°44' W 095°07'1 1.0
2018-Jul-17 11:52N 29°44' W 095°07'0 0.0
2018-Jul-17 11:28N 29°44' W 095°07'0 0.0
2018-Jul-17 10:58N 29°44' W 095°07'2 3.6
2018-Jul-17 10:30N 29°46' W 095°05'4 8.1
2018-Jul-17 10:00N 29°43' W 095°01'4 7.8
2018-Jul-17 09:29N 29°40' W 094°59'3 7.2
2018-Jul-17 09:00N 29°37' W 094°59'2 4.0
2018-Jul-17 08:30N 29°37' W 095°01'1 1.9
2018-Jul-17 08:00N 29°37' W 095°00'0 0.1
2018-Jul-17 07:29N 29°37' W 095°00'0 0.0
2018-Jul-17 06:56N 29°37' W 095°00'0 0.0
2018-Jul-17 06:29N 29°37' W 095°00'0 0.0
2018-Jul-17 05:59N 29°37' W 095°00'0 0.0
2018-Jul-17 05:31N 29°37' W 095°00'1 1.9
2018-Jul-17 05:00N 29°37' W 095°01'0 0.1
2018-Jul-17 04:30N 29°37' W 095°01'0 0.2
2018-Jul-17 04:00N 29°37' W 095°01'1 1.6
2018-Jul-17 03:31N 29°37' W 095°00'0 0.2
2018-Jul-17 01:50N 29°37' W 094°60'2 7.3
2018-Jul-17 01:31N 29°37' W 094°57'510.1
2018-Jul-17 01:00N 29°32' W 094°54'510.1
2018-Jul-17 00:30N 29°28' W 094°51'9 4.7
2018-Jul-16 22:30N 29°19' W 094°47'1 1.3
2018-Jul-16 22:00N 29°19' W 094°48'0 0.2
2018-Jul-16 21:29N 29°19' W 094°48'1 2.7
2018-Jul-16 21:00N 29°20' W 094°47'4 8.6
2018-Jul-16 20:30N 29°22' W 094°51'4 7.0
2018-Jul-16 20:00N 29°22' W 094°55'0 0.3
2018-Jul-16 19:25N 29°22' W 094°55'1 0.3
2018-Jul-16 14:21N 29°23' W 094°54'0 0.0
2018-Jul-16 08:06N 29°23' W 094°54'0 0.0
2018-Jul-16 07:51N 29°23' W 094°54'0 0.0
2018-Jul-16 07:24N 29°23' W 094°54'1 1.0
2018-Jul-16 06:49N 29°22' W 094°53'2 7.0
2018-Jul-16 06:29N 29°22' W 094°51'5 7.7
2018-Jul-16 05:53N 29°19' W 094°47'0 0.0
2018-Jul-16 01:55N 29°19' W 094°47'0 0.0
2018-Jul-16 01:28N 29°19' W 094°47'0 0.0
2018-Jul-15 16:22N 29°19' W 094°47'2 5.3
2018-Jul-15 16:00N 29°21' W 094°48'4 7.5
2018-Jul-15 15:30N 29°23' W 094°52'2 1.5
2018-Jul-15 14:30N 29°22' W 094°53'0 0.5
2018-Jul-15 14:00N 29°23' W 094°53'0 0.3
2018-Jul-15 13:19N 29°23' W 094°53'0 0.3
2018-Jul-15 13:00N 29°23' W 094°54'0 0.0
2018-Jul-15 12:18N 29°23' W 094°54'0 0.0
2018-Jul-15 11:59N 29°23' W 094°54'0 0.0
2018-Jul-15 11:19N 29°23' W 094°54'0 0.0
2018-Jul-15 10:57N 29°23' W 094°54'0 0.0
2018-Jul-15 10:18N 29°23' W 094°54'0 0.0
2018-Jul-15 09:58N 29°23' W 094°54'0 0.0
2018-Jul-15 08:27N 29°23' W 094°54'1 0.8
2018-Jul-15 07:35N 29°22' W 094°53'0 1.3
2018-Jul-15 07:31N 29°22' W 094°53'0 0.1
2018-Jul-15 01:57N 29°22' W 094°54'1 2.8
2018-Jul-15 01:30N 29°22' W 094°55'1 1.7
2018-Jul-15 00:56N 29°22' W 094°54'1 2.8
2018-Jul-15 00:25N 29°23' W 094°53'1 0.2
2018-Jul-14 20:15N 29°23' W 094°53'0 0.3
2018-Jul-14 19:49N 29°23' W 094°53'4 3.7
2018-Jul-14 18:51N 29°22' W 094°49'2 5.9
2018-Jul-14 18:30N 29°21' W 094°47'1 1.9
2018-Jul-14 18:00N 29°20' W 094°46'2 2.0
2018-Jul-14 17:14N 29°19' W 094°47'0 0.1
2018-Jul-14 16:38N 29°19' W 094°47'0 0.0
2018-Jul-14 16:17N 29°19' W 094°47'0 0.0
2018-Jul-14 15:23N 29°19' W 094°47'0 0.0
2018-Jul-14 14:50N 29°19' W 094°47'0 0.0
2018-Jul-14 14:17N 29°19' W 094°47'0 0.0
2018-Jul-14 13:11N 29°19' W 094°47'1 3.6
2018-Jul-14 12:59N 29°19' W 094°48'1 2.1
2018-Jul-14 12:30N 29°19' W 094°47'0 0.3
2018-Jul-14 11:16N 29°19' W 094°47'0 0.0
2018-Jul-14 10:40N 29°19' W 094°47'0 0.0
2018-Jul-14 10:19N 29°19' W 094°47'0 0.0
2018-Jul-14 09:52N 29°19' W 094°47'0 0.0
2018-Jul-14 08:40N 29°19' W 094°47'0 0.0
2018-Jul-14 08:07N 29°19' W 094°47'0 0.0
2018-Jul-14 07:52N 29°19' W 094°47'0 0.0
2018-Jul-14 06:58N 29°19' W 094°47'0 0.0
2018-Jul-14 06:25N 29°19' W 094°47'0 0.0
2018-Jul-14 05:55N 29°19' W 094°47'0 0.0
2018-Jul-14 05:22N 29°19' W 094°47'0 0.0
2018-Jul-14 04:55N 29°19' W 094°47'0 0.0
2018-Jul-14 04:25N 29°19' W 094°47'0 0.0
2018-Jul-14 03:52N 29°19' W 094°47'0 0.0
2018-Jul-14 03:10N 29°19' W 094°47'0 0.0
2018-Jul-14 02:40N 29°19' W 094°47'0 0.0
2018-Jul-14 02:28N 29°19' W 094°47'0 0.0
2018-Jul-14 00:55N 29°19' W 094°47'0 0.0
2018-Jul-14 00:25N 29°19' W 094°47'0 0.0
2018-Jul-13 23:58N 29°19' W 094°47'0 0.0
2018-Jul-13 23:28N 29°19' W 094°47'0 0.0
2018-Jul-13 22:58N 29°19' W 094°47'1 2.8
2018-Jul-13 22:29N 29°19' W 094°48'0 0.1
2018-Jul-13 21:59N 29°19' W 094°49'2 3.8
2018-Jul-13 21:29N 29°20' W 094°47'1 2.8
2018-Jul-13 21:00N 29°19' W 094°48'0 0.3
2018-Jul-13 20:30N 29°19' W 094°48'1 1.8
2018-Jul-13 19:52N 29°19' W 094°47'3 7.9
2018-Jul-13 19:30N 29°22' W 094°49'4 5.1
2018-Jul-13 18:42N 29°22' W 094°53'0 2.2
2018-Jul-13 18:29N 29°23' W 094°54'1 0.5
2018-Jul-13 17:12N 29°22' W 094°53'1 4.0
2018-Jul-13 16:50N 29°23' W 094°52'1 0.9
2018-Jul-13 15:16N 29°23' W 094°53'0 0.2
2018-Jul-13 13:56N 29°23' W 094°53'2 5.3
2018-Jul-13 13:30N 29°22' W 094°51'4 6.7
2018-Jul-13 12:51N 29°19' W 094°47'0 0.0
2018-Jul-12 23:13N 29°19' W 094°47'2 7.3
2018-Jul-12 23:00N 29°21' W 094°47'611.0
2018-Jul-12 22:30N 29°23' W 094°53'1 0.6
2018-Jul-12 21:41N 29°23' W 094°53'0 0.1
2018-Jul-12 19:18N 29°23' W 094°53'0 0.0
2018-Jul-12 05:29N 29°23' W 094°53'1 1.0
2018-Jul-12 04:51N 29°22' W 094°53'  

Dump ship's entire track history